This is the latest recevied weather packets stored in our database for station/object N1MCJ. If no packets are shown the sender has not sent any weather packets the latest 10 day(s).
| Time | Temp. | Humidity | Pressure | Rain* | Wind** | Luminosity | Snow |
|---|---|---|---|---|---|---|---|
| 1777484610 | 17.22° C | 53% | 1005.4 hPa | 0 mm | - | 363 W/m² | - |
| 1777483705 | 16.67° C | 52% | 1005.3 hPa | 0 mm | - | 335 W/m² | - |
| 1777482805 | 16.11° C | 55% | 1005.9 hPa | 0 mm | - | 221 W/m² | - |
| 1777481901 | 16.11° C | 55% | 1006.1 hPa | 0 mm | - | 234 W/m² | - |
| 1777480997 | 15° C | 59% | 1006.2 hPa | 0 mm | - | 243 W/m² | - |
| 1777480092 | 15° C | 58% | 1006.7 hPa | 0 mm | - | 253 W/m² | - |
| 1777479189 | 13.89° C | 62% | 1006.9 hPa | 0 mm | - | 237 W/m² | - |
| 1777478285 | 14.44° C | 62% | 1006.8 hPa | 0 mm | - | 288 W/m² | - |
| 1777477386 | 14.44° C | 63% | 1006.8 hPa | 0 mm | - | 298 W/m² | - |
| 1777476482 | 14.44° C | 63% | 1006.7 hPa | 0 mm | - | 289 W/m² | - |
| 1777475583 | 15° C | 62% | 1006.5 hPa | 0 mm | - | 440 W/m² | - |
| 1777474682 | 15° C | 61% | 1006.4 hPa | 0 mm | - | 120 W/m² | - |
| 1777473780 | 15° C | 58% | 1006.2 hPa | 0 mm | - | 66 W/m² | - |
| 1777472875 | 15.56° C | 57% | 1006.3 hPa | 0 mm | - | 213 W/m² | - |
| 1777471969 | 13.89° C | 60% | 1006.5 hPa | 0 mm | - | 325 W/m² | - |
| 1777471065 | 13.89° C | 61% | 1006.9 hPa | 0 mm | - | 225 W/m² | - |
| 1777470161 | 13.33° C | 62% | 1006.7 hPa | 0 mm | - | 173 W/m² | - |
| 1777469259 | 13.33° C | 61% | 1007.2 hPa | 0 mm | - | 59 W/m² | - |
| 1777468359 | 12.22° C | 65% | 1007.3 hPa | 0 mm | - | 59 W/m² | - |
| 1777467459 | 12.22° C | 65% | 1007.9 hPa | 0 mm | - | 259 W/m² | - |
| 1777466555 | 11.67° C | 68% | 1007.4 hPa | 0 mm | - | 120 W/m² | - |
| 1777465655 | 11.11° C | 69% | 1007.7 hPa | 0 mm | - | 64 W/m² | - |
| 1777464750 | 11.11° C | 68% | 1007.7 hPa | 0 mm | - | 59 W/m² | - |
| 1777463848 | 10.56° C | 75% | 1008.1 hPa | 0 mm | - | 58 W/m² | - |
| 1777462947 | 10° C | 73% | 1008.3 hPa | 0 mm | - | 49 W/m² | - |
* Rain latest hour (hover to see other rain measurements)
** Current wind speed in m/s (hover to see current wind gust speed)